createdAt,value
2022-08-19T00:01:07.109Z,8.73
2022-08-19T00:06:30.716Z,9.25
2022-08-19T00:11:54.280Z,8.93
2022-08-19T00:17:16.122Z,9.48
2022-08-19T00:22:39.217Z,8.70
2022-08-19T00:28:01.071Z,8.43
2022-08-19T00:33:22.948Z,8.82
2022-08-19T00:38:44.784Z,9.32
2022-08-19T00:44:13.299Z,8.88
2022-08-19T00:49:39.022Z,9.00
2022-08-19T00:55:02.072Z,9.13
2022-08-19T01:00:26.879Z,9.52
2022-08-19T01:05:51.097Z,9.35
2022-08-19T01:11:13.255Z,8.98
2022-08-19T01:16:36.272Z,9.13
2022-08-19T01:22:30.034Z,8.73
2022-08-19T01:27:53.568Z,10.13
2022-08-19T01:33:15.752Z,9.85
2022-08-19T01:38:43.979Z,9.55
2022-08-19T01:44:17.366Z,8.88
2022-08-19T01:49:40.861Z,9.77
2022-08-19T01:55:02.888Z,9.20
2022-08-19T02:00:28.870Z,8.98
2022-08-19T02:05:56.835Z,9.82
2022-08-19T02:11:25.100Z,10.15
2022-08-19T02:16:46.948Z,10.07
2022-08-19T02:22:08.825Z,10.05
2022-08-19T02:27:30.692Z,10.13
2022-08-19T02:32:53.795Z,9.10
2022-08-19T02:38:16.199Z,9.40
2022-08-19T02:43:38.544Z,10.02
2022-08-19T02:49:03.494Z,9.93
2022-08-19T02:54:25.311Z,10.18
2022-08-19T02:59:47.184Z,10.75
2022-08-19T03:05:10.218Z,10.30
2022-08-19T03:10:33.770Z,10.30
2022-08-19T03:15:56.076Z,10.75
2022-08-19T03:21:23.276Z,10.68
2022-08-19T03:26:52.017Z,11.40
2022-08-19T03:32:19.824Z,10.43
2022-08-19T03:37:55.011Z,10.10
2022-08-19T03:43:16.861Z,9.80
2022-08-19T03:48:40.894Z,10.82
2022-08-19T03:54:06.427Z,10.32
2022-08-19T03:59:34.169Z,9.60
2022-08-19T04:04:56.089Z,9.43
2022-08-19T04:10:17.973Z,10.48
2022-08-19T04:15:44.111Z,9.77
2022-08-19T04:26:32.761Z,9.40
2022-08-19T04:37:17.509Z,8.52
2022-08-19T04:42:39.384Z,8.55
2022-08-19T04:48:20.002Z,9.00
2022-08-19T04:53:43.081Z,9.07
2022-08-19T04:59:04.923Z,7.85
2022-08-19T05:04:26.739Z,7.78
2022-08-19T05:09:57.882Z,7.30
2022-08-19T05:15:20.815Z,8.20
2022-08-19T05:20:42.703Z,7.32
2022-08-19T05:26:05.759Z,7.10
2022-08-19T05:31:27.603Z,7.68
2022-08-19T05:36:50.763Z,7.03
2022-08-19T05:42:13.406Z,7.38
2022-08-19T05:47:35.228Z,6.90
2022-08-19T05:52:57.395Z,6.68
2022-08-19T05:58:19.331Z,6.97
2022-08-19T06:03:46.834Z,6.47
2022-08-19T06:09:09.438Z,5.80
2022-08-19T06:14:33.755Z,5.38
2022-08-19T06:19:55.572Z,6.35
2022-08-19T06:25:17.407Z,6.13
2022-08-19T06:30:39.259Z,6.30
2022-08-19T06:36:01.087Z,6.53
2022-08-19T06:41:22.922Z,5.95
2022-08-19T06:46:45.022Z,5.57
2022-08-19T06:52:15.590Z,5.50
2022-08-19T06:57:37.431Z,4.97
2022-08-19T07:03:03.063Z,5.65
2022-08-19T07:08:29.300Z,5.45
2022-08-19T07:13:51.666Z,5.18
2022-08-19T07:25:43.416Z,5.47
2022-08-19T07:31:06.435Z,5.57
2022-08-19T07:36:29.614Z,5.85
2022-08-19T07:41:52.368Z,6.35
2022-08-19T07:47:48.140Z,6.35
2022-08-19T07:52:56.050Z,6.22
2022-08-19T07:58:21.377Z,5.72
2022-08-19T08:03:43.878Z,6.00
2022-08-19T08:09:07.011Z,5.93
2022-08-19T08:14:35.046Z,5.90
2022-08-19T08:19:57.428Z,5.97
2022-08-19T08:25:22.314Z,6.20
2022-08-19T08:30:45.464Z,6.00
2022-08-19T08:36:08.240Z,5.85
2022-08-19T08:41:56.168Z,6.32
2022-08-19T08:47:21.651Z,6.03
2022-08-19T08:52:51.279Z,6.07
2022-08-19T08:58:20.967Z,6.47
2022-08-19T09:03:44.196Z,5.55
2022-08-19T09:09:19.807Z,6.80
2022-08-19T09:15:09.842Z,5.95
2022-08-19T09:20:31.883Z,6.45
2022-08-19T09:25:53.866Z,6.68
2022-08-19T09:31:18.872Z,6.80
2022-08-19T09:42:02.480Z,7.03
2022-08-19T09:47:24.287Z,5.90
2022-08-19T09:52:55.008Z,5.95
2022-08-19T09:58:22.356Z,5.75
2022-08-19T10:03:50.511Z,5.57
2022-08-19T10:09:12.428Z,5.60
2022-08-19T10:14:34.928Z,6.32
2022-08-19T10:19:56.729Z,6.25
2022-08-19T10:25:18.821Z,6.45
2022-08-19T10:30:41.562Z,6.05
2022-08-19T10:36:13.343Z,5.82
2022-08-19T10:41:38.221Z,6.05
2022-08-19T10:47:00.568Z,5.50
2022-08-19T10:52:25.965Z,6.80
2022-08-19T10:58:02.165Z,6.28
2022-08-19T11:03:26.089Z,6.07
2022-08-19T11:08:47.905Z,5.40
2022-08-19T11:14:11.694Z,5.35
2022-08-19T11:19:34.147Z,5.95
2022-08-19T11:24:55.971Z,5.68
2022-08-19T11:30:17.891Z,5.63
2022-08-19T11:35:41.337Z,5.40
2022-08-19T11:41:06.161Z,5.32
2022-08-19T11:46:28.046Z,5.50
2022-08-19T11:51:49.949Z,5.85
2022-08-19T11:57:12.709Z,5.30
2022-08-19T12:02:35.019Z,5.47
2022-08-19T12:07:56.939Z,4.82
2022-08-19T12:13:18.758Z,6.57
2022-08-19T12:18:42.255Z,5.22
2022-08-19T12:24:07.547Z,5.22
2022-08-19T12:29:29.989Z,5.32
2022-08-19T12:34:51.837Z,5.32
2022-08-19T12:40:16.144Z,4.72
2022-08-19T12:45:38.048Z,5.00
2022-08-19T12:51:07.508Z,4.90
2022-08-19T12:56:29.315Z,5.00
2022-08-19T13:01:51.202Z,4.80
2022-08-19T13:07:13.048Z,4.82
2022-08-19T13:12:35.447Z,4.55
2022-08-19T13:17:58.243Z,4.45
2022-08-19T13:23:20.152Z,4.45
2022-08-19T13:28:42.286Z,4.68
2022-08-19T13:34:05.196Z,4.18
2022-08-19T13:39:27.053Z,4.47
2022-08-19T13:44:48.884Z,4.63
2022-08-19T13:50:16.344Z,4.25
2022-08-19T13:55:40.055Z,4.55
2022-08-19T14:01:01.918Z,4.68
2022-08-19T14:06:23.787Z,4.72
2022-08-19T14:11:45.585Z,4.70
2022-08-19T14:17:08.370Z,4.78
2022-08-19T14:22:30.191Z,4.22
2022-08-19T14:27:52.102Z,4.50
2022-08-19T14:33:13.993Z,4.85
2022-08-19T14:38:38.961Z,4.68
2022-08-19T14:44:00.933Z,4.10
2022-08-19T14:49:22.775Z,4.70
2022-08-19T14:54:56.656Z,4.15
2022-08-19T15:00:19.348Z,4.35
2022-08-19T15:05:41.154Z,4.07
2022-08-19T15:11:03.422Z,4.22
2022-08-19T15:16:26.426Z,4.40
2022-08-19T15:21:48.258Z,4.22
2022-08-19T15:27:10.144Z,3.90
2022-08-19T15:32:31.968Z,3.90
2022-08-19T15:37:55.015Z,4.35
2022-08-19T15:43:19.217Z,3.85
2022-08-19T15:48:41.062Z,4.20
2022-08-19T15:54:06.865Z,4.43
2022-08-19T15:59:28.775Z,4.78
2022-08-19T16:04:52.316Z,4.40
2022-08-19T16:10:27.089Z,4.28
2022-08-19T16:15:49.690Z,3.95
2022-08-19T16:21:15.812Z,4.47
2022-08-19T16:26:37.715Z,3.80
2022-08-19T16:31:59.536Z,4.38
2022-08-19T16:37:23.228Z,3.88
2022-08-19T16:42:45.424Z,4.10
2022-08-19T16:48:07.324Z,4.07
2022-08-19T16:53:33.337Z,4.20
2022-08-19T16:58:55.446Z,4.05
2022-08-19T17:04:17.287Z,3.53
2022-08-19T17:09:39.100Z,3.83
2022-08-19T17:15:02.087Z,3.83
2022-08-19T17:20:23.928Z,4.30
2022-08-19T17:25:45.936Z,4.00
2022-08-19T17:31:07.935Z,5.55
2022-08-19T17:36:32.614Z,5.05
2022-08-19T17:41:54.440Z,4.40
2022-08-19T17:47:17.425Z,4.20
2022-08-19T17:52:39.671Z,4.53
2022-08-19T17:58:02.022Z,4.15
2022-08-19T18:03:25.350Z,4.65
2022-08-19T18:08:47.190Z,4.22
2022-08-19T18:14:09.014Z,4.60
2022-08-19T18:19:41.473Z,4.53
2022-08-19T18:25:08.096Z,3.67
2022-08-19T18:35:52.467Z,4.15
2022-08-19T18:41:14.368Z,4.70
2022-08-19T18:46:36.883Z,3.90
2022-08-19T18:52:00.295Z,4.22
2022-08-19T18:57:23.226Z,5.00
2022-08-19T19:02:45.086Z,4.60
2022-08-19T19:08:06.890Z,4.65
2022-08-19T19:13:28.726Z,5.03
2022-08-19T19:18:50.842Z,4.38
2022-08-19T19:24:15.088Z,4.15
2022-08-19T19:29:37.645Z,5.00
2022-08-19T19:34:59.567Z,3.95
2022-08-19T19:40:21.769Z,3.92
2022-08-19T19:45:43.773Z,4.18
2022-08-19T19:51:05.760Z,4.13
2022-08-19T19:56:27.734Z,4.68
2022-08-19T20:01:49.766Z,4.43
2022-08-19T20:07:16.500Z,4.45
2022-08-19T20:12:38.358Z,4.25
2022-08-19T20:18:00.785Z,4.45
2022-08-19T20:23:23.490Z,4.55
2022-08-19T20:28:47.887Z,3.67
2022-08-19T20:34:20.038Z,4.85
2022-08-19T20:39:42.504Z,4.13
2022-08-19T20:45:04.990Z,4.30
2022-08-19T20:50:30.163Z,4.07
2022-08-19T20:55:53.374Z,4.15
2022-08-19T21:01:21.607Z,4.25
2022-08-19T21:06:45.306Z,3.85
2022-08-19T21:12:09.099Z,4.13
2022-08-19T21:17:30.959Z,4.28
2022-08-19T21:22:52.777Z,4.43
2022-08-19T21:28:14.620Z,4.68
2022-08-19T21:33:56.283Z,5.50
2022-08-19T21:39:18.131Z,4.07
2022-08-19T21:44:40.466Z,4.20
2022-08-19T21:50:08.679Z,4.20
2022-08-19T21:55:30.566Z,4.45
2022-08-19T22:00:52.570Z,4.40
2022-08-19T22:06:14.425Z,4.15
2022-08-19T22:11:36.281Z,4.10
2022-08-19T22:16:58.081Z,3.80
2022-08-19T22:22:28.571Z,4.75
2022-08-19T22:27:50.599Z,4.07
2022-08-19T22:33:16.483Z,3.85
2022-08-19T22:38:38.329Z,4.17
2022-08-19T22:44:00.245Z,3.70
2022-08-19T22:49:22.093Z,4.43
2022-08-19T22:54:55.839Z,3.85
2022-08-19T23:00:17.678Z,4.15
2022-08-19T23:05:40.221Z,4.18
2022-08-19T23:11:02.070Z,4.05
2022-08-19T23:16:24.041Z,4.50
2022-08-19T23:21:46.047Z,4.18
2022-08-19T23:27:07.952Z,4.13
2022-08-19T23:32:34.652Z,4.63
2022-08-19T23:37:56.572Z,3.90
2022-08-19T23:43:24.449Z,3.80
2022-08-19T23:48:47.073Z,4.20
2022-08-19T23:54:08.918Z,4.00
2022-08-19T23:59:30.732Z,4.03
